Patuxent River Naval Air Sta, Maryland
Current Conditions -  °F | °C
As of 3:52 PM on Tuesday 21 Oct 2014 (Local Time) from KNHK Reporting Station
Scattered Clouds Scattered Clouds  
Wind Chill: 69°   Ceiling: Unl
Heat Index: 69°   Visibility: 10mi
Dew Point: 43°   Wind: 7mph
Humidity: 39%   Direction: 80°E
Pressure: 29.8"   Gusts: NA
Location:  38.2812°N, 76.4205°W
Report Text: KNHK 211952Z 08006KT 10SM FEW045 SCT060 21/06 A2980 RMK AO2 SLP092 T02060061
Loading
Personal Weather Stations






























Interactive Weather Map
Tropical Storm Tracking
New forecast layout! Learn more

10-Day Weather Forecast

Advertisements
Track Severe Weather on mobile